sensor_id;sensor_type;location;lat;lon;timestamp;pressure;altitude;pressure_sealevel;temperature;humidity
60307;BME280;46155;52.364;6.580;2023-02-13T04:01:24;103461.44;;;6.44;100.00
60307;BME280;46155;52.364;6.580;2023-02-13T04:04:22;103464.97;;;6.52;100.00
60307;BME280;46155;52.364;6.580;2023-02-13T04:06:53;103474.69;;;6.46;100.00
60307;BME280;46155;52.364;6.580;2023-02-13T04:09:21;103463.13;;;6.44;100.00
60307;BME280;46155;52.364;6.580;2023-02-13T04:12:19;103467.78;;;6.53;100.00
60307;BME280;46155;52.364;6.580;2023-02-13T04:15:01;103466.28;;;6.48;100.00
60307;BME280;46155;52.364;6.580;2023-02-13T04:17:36;103466.66;;;6.44;100.00
60307;BME280;46155;52.364;6.580;2023-02-13T04:20:04;103447.28;;;6.42;100.00
60307;BME280;46155;52.364;6.580;2023-02-13T04:22:30;103461.78;;;6.54;100.00
60307;BME280;46155;52.364;6.580;2023-02-13T04:24:55;103455.47;;;6.52;100.00
60307;BME280;46155;52.364;6.580;2023-02-13T04:27:22;103464.41;;;6.54;100.00
60307;BME280;46155;52.364;6.580;2023-02-13T04:29:49;103456.94;;;6.50;100.00
60307;BME280;46155;52.364;6.580;2023-02-13T04:32:15;103439.84;;;6.38;100.00
60307;BME280;46155;52.364;6.580;2023-02-13T04:34:41;103454.50;;;6.52;100.00
60307;BME280;46155;52.364;6.580;2023-02-13T04:37:06;103455.47;;;6.52;100.00
60307;BME280;46155;52.364;6.580;2023-02-13T04:39:33;103453.22;;;6.55;100.00
60307;BME280;46155;52.364;6.580;2023-02-13T04:41:58;103450.59;;;6.55;100.00
60307;BME280;46155;52.364;6.580;2023-02-13T04:44:23;103454.13;;;6.63;100.00
60307;BME280;46155;52.364;6.580;2023-02-13T04:46:48;103448.34;;;6.66;100.00
60307;BME280;46155;52.364;6.580;2023-02-13T04:49:14;103436.44;;;6.61;100.00
60307;BME280;46155;52.364;6.580;2023-02-13T04:51:39;103437.94;;;6.51;100.00
60307;BME280;46155;52.364;6.580;2023-02-13T04:54:04;103445.75;;;6.59;100.00
60307;BME280;46155;52.364;6.580;2023-02-13T04:56:30;103443.13;;;6.59;100.00
60307;BME280;46155;52.364;6.580;2023-02-13T04:58:55;103429.38;;;6.52;100.00
60307;BME280;46155;52.364;6.580;2023-02-13T05:01:20;103426.91;;;6.61;100.00
60307;BME280;46155;52.364;6.580;2023-02-13T05:03:46;103436.97;;;6.65;100.00
60307;BME280;46155;52.364;6.580;2023-02-13T05:06:12;103447.63;;;6.60;100.00
60307;BME280;46155;52.364;6.580;2023-02-13T05:08:37;103443.88;;;6.58;100.00
60307;BME280;46155;52.364;6.580;2023-02-13T05:11:03;103446.28;;;6.63;100.00
60307;BME280;46155;52.364;6.580;2023-02-13T05:13:28;103444.06;;;6.66;100.00
60307;BME280;46155;52.364;6.580;2023-02-13T05:15:53;103438.47;;;6.63;100.00
60307;BME280;46155;52.364;6.580;2023-02-13T05:18:19;103427.16;;;6.48;100.00
60307;BME280;46155;52.364;6.580;2023-02-13T05:20:44;103437.38;;;6.54;100.00
60307;BME280;46155;52.364;6.580;2023-02-13T05:23:13;103429.75;;;6.48;100.00
60307;BME280;46155;52.364;6.580;2023-02-13T05:25:48;103436.66;;;6.48;100.00
60307;BME280;46155;52.364;6.580;2023-02-13T05:28:13;103442.97;;;6.50;100.00
60307;BME280;46155;52.364;6.580;2023-02-13T05:30:57;103440.16;;;6.55;100.00
60307;BME280;46155;52.364;6.580;2023-02-13T05:33:23;103436.47;;;6.53;100.00
60307;BME280;46155;52.364;6.580;2023-02-13T05:35:48;103435.88;;;6.56;100.00
60307;BME280;46155;52.364;6.580;2023-02-13T05:38:13;103433.44;;;6.58;100.00
60307;BME280;46155;52.364;6.580;2023-02-13T05:40:39;103433.84;;;6.61;100.00
60307;BME280;46155;52.364;6.580;2023-02-13T05:43:04;103434.19;;;6.64;100.00
60307;BME280;46155;52.364;6.580;2023-02-13T05:45:29;103430.81;;;6.65;100.00
60307;BME280;46155;52.364;6.580;2023-02-13T05:47:55;103436.41;;;6.68;100.00
60307;BME280;46155;52.364;6.580;2023-02-13T05:50:20;103435.25;;;6.73;100.00
60307;BME280;46155;52.364;6.580;2023-02-13T05:52:45;103425.94;;;6.75;100.00
60307;BME280;46155;52.364;6.580;2023-02-13T05:55:10;103431.72;;;6.80;100.00
60307;BME280;46155;52.364;6.580;2023-02-13T05:57:36;103435.44;;;6.75;100.00
60307;BME280;46155;52.364;6.580;2023-02-13T06:00:02;103429.50;;;6.68;100.00
60307;BME280;46155;52.364;6.580;2023-02-13T06:02:27;103433.03;;;6.69;100.00
60307;BME280;46155;52.364;6.580;2023-02-13T06:04:52;103430.59;;;6.70;100.00
60307;BME280;46155;52.364;6.580;2023-02-13T06:07:18;103440.13;;;6.70;100.00
60307;BME280;46155;52.364;6.580;2023-02-13T06:09:43;103436.97;;;6.65;100.00
60307;BME280;46155;52.364;6.580;2023-02-13T06:12:08;103439.06;;;6.61;100.00
60307;BME280;46155;52.364;6.580;2023-02-13T06:14:34;103441.66;;;6.61;100.00
60307;BME280;46155;52.364;6.580;2023-02-13T06:17:00;103435.31;;;6.59;100.00
60307;BME280;46155;52.364;6.580;2023-02-13T06:19:25;103442.38;;;6.67;100.00
60307;BME280;46155;52.364;6.580;2023-02-13T06:21:50;103449.66;;;6.69;100.00
60307;BME280;46155;52.364;6.580;2023-02-13T06:24:16;103450.22;;;6.67;100.00
60307;BME280;46155;52.364;6.580;2023-02-13T06:26:41;103453.19;;;6.63;100.00
60307;BME280;46155;52.364;6.580;2023-02-13T06:29:06;103453.41;;;6.57;100.00
60307;BME280;46155;52.364;6.580;2023-02-13T06:31:33;103448.75;;;6.47;100.00
60307;BME280;46155;52.364;6.580;2023-02-13T06:33:58;103460.28;;;6.71;100.00
60307;BME280;46155;52.364;6.580;2023-02-13T06:36:24;103459.88;;;6.75;100.00
60307;BME280;46155;52.364;6.580;2023-02-13T06:38:49;103456.91;;;6.79;100.00
60307;BME280;46155;52.364;6.580;2023-02-13T06:41:14;103466.56;;;6.80;100.00
60307;BME280;46155;52.364;6.580;2023-02-13T06:43:40;103461.00;;;6.70;100.00
60307;BME280;46155;52.364;6.580;2023-02-13T06:46:06;103480.63;;;6.66;100.00
60307;BME280;46155;52.364;6.580;2023-02-13T06:48:31;103479.47;;;6.64;100.00
60307;BME280;46155;52.364;6.580;2023-02-13T06:50:57;103474.78;;;6.76;100.00
60307;BME280;46155;52.364;6.580;2023-02-13T06:53:23;103475.38;;;6.74;100.00
60307;BME280;46155;52.364;6.580;2023-02-13T06:55:54;103483.41;;;6.68;100.00
60307;BME280;46155;52.364;6.580;2023-02-13T06:58:20;103485.84;;;6.66;100.00
60307;BME280;46155;52.364;6.580;2023-02-13T07:00:46;103480.97;;;6.69;100.00
60307;BME280;46155;52.364;6.580;2023-02-13T07:03:11;103474.09;;;6.63;100.00
60307;BME280;46155;52.364;6.580;2023-02-13T07:05:42;103486.41;;;6.64;100.00
60307;BME280;46155;52.364;6.580;2023-02-13T07:08:11;103478.94;;;6.60;100.00
60307;BME280;46155;52.364;6.580;2023-02-13T07:10:37;103481.75;;;6.61;100.00
60307;BME280;46155;52.364;6.580;2023-02-13T07:13:04;103479.88;;;6.53;100.00
60307;BME280;46155;52.364;6.580;2023-02-13T07:15:29;103481.56;;;6.52;100.00
60307;BME280;46155;52.364;6.580;2023-02-13T07:17:55;103478.94;;;6.60;100.00
60307;BME280;46155;52.364;6.580;2023-02-13T07:20:21;103484.53;;;6.63;100.00
60307;BME280;46155;52.364;6.580;2023-02-13T07:22:46;103486.97;;;6.61;100.00
60307;BME280;46155;52.364;6.580;2023-02-13T07:25:12;103494.25;;;6.57;100.00
60307;BME280;46155;52.364;6.580;2023-02-13T07:27:37;103493.69;;;6.59;100.00
60307;BME280;46155;52.364;6.580;2023-02-13T07:30:02;103492.00;;;6.60;100.00
60307;BME280;46155;52.364;6.580;2023-02-13T07:32:28;103490.09;;;6.66;100.00
60307;BME280;46155;52.364;6.580;2023-02-13T07:34:53;103486.91;;;6.76;100.00
60307;BME280;46155;52.364;6.580;2023-02-13T07:37:18;103493.44;;;6.79;100.00
60307;BME280;46155;52.364;6.580;2023-02-13T07:39:44;103490.66;;;6.78;100.00
60307;BME280;46155;52.364;6.580;2023-02-13T07:42:09;103500.16;;;6.77;100.00
60307;BME280;46155;52.364;6.580;2023-02-13T07:44:34;103497.19;;;6.74;100.00
60307;BME280;46155;52.364;6.580;2023-02-13T07:46:59;103488.78;;;6.77;100.00
60307;BME280;46155;52.364;6.580;2023-02-13T07:49:25;103493.81;;;6.82;100.00
60307;BME280;46155;52.364;6.580;2023-02-13T07:51:50;103493.78;;;6.89;100.00
60307;BME280;46155;52.364;6.580;2023-02-13T07:54:15;103498.63;;;6.94;100.00
60307;BME280;46155;52.364;6.580;2023-02-13T07:56:41;103498.25;;;6.98;100.00
60307;BME280;46155;52.364;6.580;2023-02-13T07:59:06;103504.94;;;7.03;100.00
60307;BME280;46155;52.364;6.580;2023-02-13T08:01:31;103505.31;;;7.06;100.00
60307;BME280;46155;52.364;6.580;2023-02-13T08:03:56;103504.16;;;7.11;100.00
60307;BME280;46155;52.364;6.580;2023-02-13T08:06:22;103502.06;;;7.16;100.00
60307;BME280;46155;52.364;6.580;2023-02-13T08:08:47;103503.38;;;7.19;100.00
60307;BME280;46155;52.364;6.580;2023-02-13T08:11:40;103504.88;;;7.24;100.00
60307;BME280;46155;52.364;6.580;2023-02-13T08:14:17;103503.34;;;7.27;100.00
60307;BME280;46155;52.364;6.580;2023-02-13T08:16:42;103507.84;;;7.28;100.00
60307;BME280;46155;52.364;6.580;2023-02-13T08:19:08;103512.84;;;7.33;100.00
60307;BME280;46155;52.364;6.580;2023-02-13T08:21:33;103498.47;;;7.30;100.00
60307;BME280;46155;52.364;6.580;2023-02-13T08:23:59;103506.47;;;7.38;100.00
60307;BME280;46155;52.364;6.580;2023-02-13T08:26:24;103508.31;;;7.39;100.00
60307;BME280;46155;52.364;6.580;2023-02-13T08:28:50;103500.66;;;7.41;100.00
60307;BME280;46155;52.364;6.580;2023-02-13T08:31:15;103514.28;;;7.46;100.00
60307;BME280;46155;52.364;6.580;2023-02-13T08:33:40;103500.44;;;7.47;100.00
60307;BME280;46155;52.364;6.580;2023-02-13T08:36:06;103502.50;;;7.49;100.00
60307;BME280;46155;52.364;6.580;2023-02-13T08:38:32;103503.25;;;7.48;100.00
60307;BME280;46155;52.364;6.580;2023-02-13T08:40:57;103507.56;;;7.48;100.00
60307;BME280;46155;52.364;6.580;2023-02-13T08:43:24;103509.97;;;7.46;100.00
60307;BME280;46155;52.364;6.580;2023-02-13T08:45:49;103509.97;;;7.46;100.00
60307;BME280;46155;52.364;6.580;2023-02-13T08:48:14;103506.97;;;7.50;100.00
60307;BME280;46155;52.364;6.580;2023-02-13T08:50:40;103503.41;;;7.50;100.00
60307;BME280;46155;52.364;6.580;2023-02-13T08:53:05;103514.44;;;7.54;100.00
60307;BME280;46155;52.364;6.580;2023-02-13T08:55:30;103504.91;;;7.55;100.00
60307;BME280;46155;52.364;6.580;2023-02-13T08:58:03;103515.13;;;7.61;100.00
60307;BME280;46155;52.364;6.580;2023-02-13T09:00:29;103520.72;;;7.64;100.00
60307;BME280;46155;52.364;6.580;2023-02-13T09:02:59;103517.34;;;7.65;100.00
60307;BME280;46155;52.364;6.580;2023-02-13T09:05:26;103511.78;;;7.62;100.00
60307;BME280;46155;52.364;6.580;2023-02-13T09:07:51;103511.03;;;7.63;100.00
60307;BME280;46155;52.364;6.580;2023-02-13T09:10:17;103514.34;;;7.69;100.00
60307;BME280;46155;52.364;6.580;2023-02-13T09:12:42;103514.00;;;7.66;100.00
60307;BME280;46155;52.364;6.580;2023-02-13T09:15:08;103511.56;;;7.67;100.00
60307;BME280;46155;52.364;6.580;2023-02-13T09:17:33;103533.53;;;7.76;100.00
60307;BME280;46155;52.364;6.580;2023-02-13T09:19:59;103543.41;;;7.79;100.00
60307;BME280;46155;52.364;6.580;2023-02-13T09:22:24;103545.63;;;7.83;100.00
60307;BME280;46155;52.364;6.580;2023-02-13T09:24:49;103531.81;;;7.84;100.00
60307;BME280;46155;52.364;6.580;2023-02-13T09:27:14;103532.91;;;7.86;100.00
60307;BME280;46155;52.364;6.580;2023-02-13T09:29:40;103537.38;;;7.87;100.00
60307;BME280;46155;52.364;6.580;2023-02-13T09:32:05;103533.97;;;7.96;100.00
60307;BME280;46155;52.364;6.580;2023-02-13T09:34:31;103531.72;;;7.99;100.00
60307;BME280;46155;52.364;6.580;2023-02-13T09:36:56;103528.34;;;8.00;100.00
60307;BME280;46155;52.364;6.580;2023-02-13T09:39:21;103527.16;;;8.05;100.00
60307;BME280;46155;52.364;6.580;2023-02-13T09:41:49;103527.16;;;8.05;100.00
60307;BME280;46155;52.364;6.580;2023-02-13T09:44:20;103533.81;;;8.17;100.00
60307;BME280;46155;52.364;6.580;2023-02-13T09:49:32;103525.50;;;8.28;100.00
60307;BME280;46155;52.364;6.580;2023-02-13T09:51:58;103532.44;;;8.28;100.00
60307;BME280;46155;52.364;6.580;2023-02-13T09:54:24;103533.34;;;8.28;100.00
60307;BME280;46155;52.364;6.580;2023-02-13T09:59:49;103525.44;;;8.36;100.00
60307;BME280;46155;52.364;6.580;2023-02-13T10:10:50;103533.03;;;8.49;100.00
60307;BME280;46155;52.364;6.580;2023-02-13T10:13:22;103530.34;;;8.56;100.00
60307;BME280;46155;52.364;6.580;2023-02-13T10:18:31;103524.53;;;8.58;100.00
60307;BME280;46155;52.364;6.580;2023-02-13T10:21:02;103526.16;;;8.65;100.00
60307;BME280;46155;52.364;6.580;2023-02-13T10:26:33;103525.50;;;8.75;100.00
60307;BME280;46155;52.364;6.580;2023-02-13T10:32:08;103517.72;;;8.84;100.00
60307;BME280;46155;52.364;6.580;2023-02-13T10:34:38;103513.66;;;8.78;99.52
60307;BME280;46155;52.364;6.580;2023-02-13T10:37:18;103520.75;;;8.79;98.59
60307;BME280;46155;52.364;6.580;2023-02-13T10:39:46;103512.41;;;8.75;99.44
60307;BME280;46155;52.364;6.580;2023-02-13T10:42:28;103517.81;;;8.76;98.46
60307;BME280;46155;52.364;6.580;2023-02-13T10:45:13;103510.53;;;8.74;98.51
60307;BME280;46155;52.364;6.580;2023-02-13T10:48:10;103510.53;;;8.74;97.82
60307;BME280;46155;52.364;6.580;2023-02-13T10:53:25;103516.59;;;8.66;97.72
60307;BME280;46155;52.364;6.580;2023-02-13T10:56:22;103510.19;;;8.71;97.71
60307;BME280;46155;52.364;6.580;2023-02-13T11:04:20;103502.91;;;8.84;96.91
60307;BME280;46155;52.364;6.580;2023-02-13T11:06:58;103498.22;;;8.89;96.87
60307;BME280;46155;52.364;6.580;2023-02-13T11:09:24;103509.53;;;8.96;96.31
60307;BME280;46155;52.364;6.580;2023-02-13T11:11:50;103500.06;;;8.90;95.23
60307;BME280;46155;52.364;6.580;2023-02-13T11:19:16;103495.69;;;8.98;93.90
60307;BME280;46155;52.364;6.580;2023-02-13T11:21:42;103499.13;;;8.89;93.35
60307;BME280;46155;52.364;6.580;2023-02-13T11:24:17;103485.00;;;8.80;94.94
60307;BME280;46155;52.364;6.580;2023-02-13T11:26:43;103493.16;;;8.90;95.37
60307;BME280;46155;52.364;6.580;2023-02-13T11:29:36;103488.41;;;8.95;95.96
60307;BME280;46155;52.364;6.580;2023-02-13T11:34:38;103481.78;;;8.99;94.41
60307;BME280;46155;52.364;6.580;2023-02-13T11:39:38;103475.63;;;8.98;94.88
60307;BME280;46155;52.364;6.580;2023-02-13T11:42:25;103475.13;;;8.93;94.74
60307;BME280;46155;52.364;6.580;2023-02-13T11:45:38;103475.81;;;9.00;94.12
60307;BME280;46155;52.364;6.580;2023-02-13T11:47:40;103474.03;;;9.07;92.95
60307;BME280;46155;52.364;6.580;2023-02-13T11:50:31;103475.06;;;9.01;92.25
60307;BME280;46155;52.364;6.580;2023-02-13T11:53:02;103470.50;;;8.75;93.24
60307;BME280;46155;52.364;6.580;2023-02-13T11:55:37;103466.09;;;8.67;93.54
60307;BME280;46155;52.364;6.580;2023-02-13T11:58:22;103468.28;;;8.71;95.37
60307;BME280;46155;52.364;6.580;2023-02-13T12:00:48;103473.34;;;8.85;95.40
60307;BME280;46155;52.364;6.580;2023-02-13T12:03:28;103470.22;;;8.96;94.56
60307;BME280;46155;52.364;6.580;2023-02-13T12:08:33;103460.75;;;9.22;96.02
60307;BME280;46155;52.364;6.580;2023-02-13T12:10:59;103465.78;;;9.36;95.54
60307;BME280;46155;52.364;6.580;2023-02-13T12:13:32;103464.81;;;9.52;94.33
60307;BME280;46155;52.364;6.580;2023-02-13T12:16:05;103455.56;;;9.55;94.11
60307;BME280;46155;52.364;6.580;2023-02-13T12:18:40;103454.34;;;9.52;93.68
60307;BME280;46155;52.364;6.580;2023-02-13T12:21:35;103452.03;;;9.55;92.39
60307;BME280;46155;52.364;6.580;2023-02-13T12:45:52;103401.72;;;10.17;89.56
60307;BME280;46155;52.364;6.580;2023-02-13T12:59:21;103414.44;;;9.63;89.59
60307;BME280;46155;52.364;6.580;2023-02-13T13:12:25;103394.06;;;9.60;90.65
60307;BME280;46155;52.364;6.580;2023-02-13T13:15:32;103398.44;;;9.69;90.36
60307;BME280;46155;52.364;6.580;2023-02-13T13:18:11;103393.19;;;9.69;89.59
60307;BME280;46155;52.364;6.580;2023-02-13T13:24:02;103391.31;;;9.68;89.12
60307;BME280;46155;52.364;6.580;2023-02-13T13:26:45;103386.94;;;9.59;89.67
60307;BME280;46155;52.364;6.580;2023-02-13T13:32:02;103380.84;;;9.68;90.45
60307;BME280;46155;52.364;6.580;2023-02-13T13:34:30;103379.47;;;9.71;89.95
60307;BME280;46155;52.364;6.580;2023-02-13T13:37:03;103383.63;;;9.69;89.67
60307;BME280;46155;52.364;6.580;2023-02-13T13:39:53;103374.38;;;9.73;90.17
60307;BME280;46155;52.364;6.580;2023-02-13T13:42:38;103365.94;;;9.84;89.38
60307;BME280;46155;52.364;6.580;2023-02-13T13:50:32;103360.53;;;9.82;88.73
60307;BME280;46155;52.364;6.580;2023-02-13T13:53:09;103358.09;;;9.93;89.34
60307;BME280;46155;52.364;6.580;2023-02-13T13:55:59;103368.00;;;9.95;88.48
60307;BME280;46155;52.364;6.580;2023-02-13T14:03:38;103360.94;;;10.12;88.16
60307;BME280;46155;52.364;6.580;2023-02-13T14:06:07;103365.56;;;10.06;88.59
60307;BME280;46155;52.364;6.580;2023-02-13T14:11:24;103351.53;;;10.14;87.46
60307;BME280;46155;52.364;6.580;2023-02-13T14:13:50;103352.28;;;10.13;87.74
60307;BME280;46155;52.364;6.580;2023-02-13T14:16:36;103350.13;;;10.17;87.06
60307;BME280;46155;52.364;6.580;2023-02-13T14:19:02;103339.94;;;10.12;87.77
60307;BME280;46155;52.364;6.580;2023-02-13T14:21:28;103340.09;;;10.13;87.41
60307;BME280;46155;52.364;6.580;2023-02-13T14:23:54;103345.19;;;10.12;87.61
60307;BME280;46155;52.364;6.580;2023-02-13T14:26:33;103324.81;;;10.09;87.27
60307;BME280;46155;52.364;6.580;2023-02-13T14:31:38;103330.69;;;10.24;86.88
60307;BME280;46155;52.364;6.580;2023-02-13T14:36:45;103327.91;;;10.14;86.67
60307;BME280;46155;52.364;6.580;2023-02-13T14:39:31;103324.84;;;10.18;87.40
60307;BME280;46155;52.364;6.580;2023-02-13T14:42:01;103328.84;;;10.23;86.97
60307;BME280;46155;52.364;6.580;2023-02-13T14:44:45;103327.00;;;10.22;87.08
60307;BME280;46155;52.364;6.580;2023-02-13T14:47:38;103328.06;;;10.24;87.51
60307;BME280;46155;52.364;6.580;2023-02-13T14:50:14;103324.38;;;10.22;87.46
60307;BME280;46155;52.364;6.580;2023-02-13T14:52:43;103333.31;;;10.24;86.69
60307;BME280;46155;52.364;6.580;2023-02-13T14:55:20;103322.38;;;10.20;87.00
60307;BME280;46155;52.364;6.580;2023-02-13T14:57:52;103332.25;;;10.22;87.22
60307;BME280;46155;52.364;6.580;2023-02-13T15:00:27;103333.19;;;10.23;88.09
60307;BME280;46155;52.364;6.580;2023-02-13T15:03:04;103324.84;;;10.18;87.65
60307;BME280;46155;52.364;6.580;2023-02-13T15:05:33;103320.50;;;10.19;87.86
60307;BME280;46155;52.364;6.580;2023-02-13T15:08:11;103323.13;;;10.10;87.16
60307;BME280;46155;52.364;6.580;2023-02-13T15:13:14;103315.09;;;10.08;88.08
60307;BME280;46155;52.364;6.580;2023-02-13T15:15:40;103321.56;;;10.12;88.60
60307;BME280;46155;52.364;6.580;2023-02-13T15:18:21;103319.59;;;10.18;88.16
60307;BME280;46155;52.364;6.580;2023-02-13T15:20:48;103314.03;;;10.15;87.72
60307;BME280;46155;52.364;6.580;2023-02-13T15:23:25;103317.72;;;10.17;87.90
60307;BME280;46155;52.364;6.580;2023-02-13T15:26:02;103320.03;;;10.14;87.66
60307;BME280;46155;52.364;6.580;2023-02-13T15:28:28;103318.00;;;10.11;87.53
60307;BME280;46155;52.364;6.580;2023-02-13T15:31:05;103319.06;;;10.05;87.76
60307;BME280;46155;52.364;6.580;2023-02-13T15:33:33;103308.41;;;10.03;87.50
60307;BME280;46155;52.364;6.580;2023-02-13T15:36:01;103313.06;;;10.06;87.82
60307;BME280;46155;52.364;6.580;2023-02-13T15:38:35;103313.66;;;10.03;88.18
60307;BME280;46155;52.364;6.580;2023-02-13T15:41:10;103307.94;;;9.98;87.48
60307;BME280;46155;52.364;6.580;2023-02-13T15:43:39;103304.06;;;9.95;88.02
60307;BME280;46155;52.364;6.580;2023-02-13T15:46:35;103305.63;;;9.93;88.33
60307;BME280;46155;52.364;6.580;2023-02-13T15:49:07;103306.53;;;9.93;88.03
60307;BME280;46155;52.364;6.580;2023-02-13T15:51:34;103306.53;;;9.93;88.12
60307;BME280;46155;52.364;6.580;2023-02-13T15:54:03;103303.16;;;9.94;88.61
60307;BME280;46155;52.364;6.580;2023-02-13T15:56:30;103294.66;;;9.88;88.21
60307;BME280;46155;52.364;6.580;2023-02-13T15:58:57;103303.28;;;9.87;88.37
60307;BME280;46155;52.364;6.580;2023-02-13T16:01:23;103299.13;;;9.89;88.42
60307;BME280;46155;52.364;6.580;2023-02-13T16:04:05;103301.44;;;9.86;87.97
60307;BME280;46155;52.364;6.580;2023-02-13T16:06:33;103297.56;;;9.82;88.52
60307;BME280;46155;52.364;6.580;2023-02-13T16:08:59;103298.50;;;9.83;88.93
60307;BME280;46155;52.364;6.580;2023-02-13T16:11:25;103298.19;;;9.80;88.89
60307;BME280;46155;52.364;6.580;2023-02-13T16:16:48;103290.75;;;9.76;89.49
60307;BME280;46155;52.364;6.580;2023-02-13T16:21:48;103289.16;;;9.60;90.39
60307;BME280;46155;52.364;6.580;2023-02-13T16:24:15;103287.56;;;9.54;90.24
60307;BME280;46155;52.364;6.580;2023-02-13T16:26:42;103286.34;;;9.50;91.00
60307;BME280;46155;52.364;6.580;2023-02-13T16:29:09;103286.94;;;9.47;91.01
60307;BME280;46155;52.364;6.580;2023-02-13T16:31:38;103290.59;;;9.41;91.40
60307;BME280;46155;52.364;6.580;2023-02-13T16:34:27;103286.91;;;9.39;91.66
60307;BME280;46155;52.364;6.580;2023-02-13T16:36:53;103289.38;;;9.37;91.65
60307;BME280;46155;52.364;6.580;2023-02-13T16:39:39;103282.88;;;9.34;91.72
60307;BME280;46155;52.364;6.580;2023-02-13T16:42:14;103293.34;;;9.34;93.94
60307;BME280;46155;52.364;6.580;2023-02-13T16:44:43;103292.84;;;9.20;92.03
60307;BME280;46155;52.364;6.580;2023-02-13T16:47:19;103293.06;;;9.06;91.96
60307;BME280;46155;52.364;6.580;2023-02-13T16:49:52;103288.16;;;8.93;92.13
60307;BME280;46155;52.364;6.580;2023-02-13T16:52:25;103285.94;;;8.80;92.62
60307;BME280;46155;52.364;6.580;2023-02-13T16:54:58;103287.25;;;8.68;92.46
60307;BME280;46155;52.364;6.580;2023-02-13T16:57:27;103282.72;;;8.58;93.02
60307;BME280;46155;52.364;6.580;2023-02-13T17:00:38;103286.16;;;8.50;93.19
60307;BME280;46155;52.364;6.580;2023-02-13T17:02:46;103290.97;;;8.38;93.97
60307;BME280;46155;52.364;6.580;2023-02-13T17:05:22;103294.53;;;8.22;96.00
60307;BME280;46155;52.364;6.580;2023-02-13T17:07:53;103286.56;;;8.14;96.70
60307;BME280;46155;52.364;6.580;2023-02-13T17:10:25;103294.91;;;8.02;97.49
60307;BME280;46155;52.364;6.580;2023-02-13T17:12:57;103296.34;;;7.91;97.76
60307;BME280;46155;52.364;6.580;2023-02-13T17:15:25;103305.78;;;7.82;98.54
60307;BME280;46155;52.364;6.580;2023-02-13T17:17:52;103307.72;;;7.76;99.20
60307;BME280;46155;52.364;6.580;2023-02-13T17:20:25;103309.47;;;7.68;99.47
60307;BME280;46155;52.364;6.580;2023-02-13T17:22:53;103305.22;;;7.62;99.71
60307;BME280;46155;52.364;6.580;2023-02-13T17:25:33;103301.31;;;7.58;99.02
60307;BME280;46155;52.364;6.580;2023-02-13T17:28:06;103303.44;;;7.53;99.30
60307;BME280;46155;52.364;6.580;2023-02-13T17:30:35;103302.13;;;7.50;98.47
60307;BME280;46155;52.364;6.580;2023-02-13T17:33:06;103308.03;;;7.40;99.55
60307;BME280;46155;52.364;6.580;2023-02-13T17:35:32;103312.16;;;7.38;100.00
60307;BME280;46155;52.364;6.580;2023-02-13T17:37:59;103315.97;;;7.26;100.00
60307;BME280;46155;52.364;6.580;2023-02-13T17:40:25;103306.38;;;7.10;100.00
60307;BME280;46155;52.364;6.580;2023-02-13T17:42:54;103314.66;;;6.99;100.00
60307;BME280;46155;52.364;6.580;2023-02-13T17:45:22;103312.84;;;6.91;100.00
60307;BME280;46155;52.364;6.580;2023-02-13T17:47:48;103303.19;;;6.82;100.00
60307;BME280;46155;52.364;6.580;2023-02-13T17:50:14;103312.16;;;6.77;100.00
60307;BME280;46155;52.364;6.580;2023-02-13T17:52:41;103308.13;;;6.72;100.00
60307;BME280;46155;52.364;6.580;2023-02-13T17:55:15;103313.56;;;6.66;100.00
60307;BME280;46155;52.364;6.580;2023-02-13T17:57:41;103316.38;;;6.61;100.00
60307;BME280;46155;52.364;6.580;2023-02-13T18:00:07;103312.09;;;6.54;100.00
60307;BME280;46155;52.364;6.580;2023-02-13T18:02:33;103317.31;;;6.54;100.00
60307;BME280;46155;52.364;6.580;2023-02-13T18:04:59;103317.88;;;6.51;100.00
60307;BME280;46155;52.364;6.580;2023-02-13T18:07:24;103312.31;;;6.48;100.00
60307;BME280;46155;52.364;6.580;2023-02-13T18:09:50;103314.56;;;6.45;100.00
60307;BME280;46155;52.364;6.580;2023-02-13T18:12:21;103324.66;;;6.42;100.00
60307;BME280;46155;52.364;6.580;2023-02-13T18:14:47;103321.28;;;6.36;100.00
60307;BME280;46155;52.364;6.580;2023-02-13T18:17:13;103316.81;;;6.35;99.72
60307;BME280;46155;52.364;6.580;2023-02-13T18:19:39;103313.84;;;6.32;99.50
60307;BME280;46155;52.364;6.580;2023-02-13T18:22:06;103305.16;;;6.17;100.00
60307;BME280;46155;52.364;6.580;2023-02-13T18:24:33;103315.59;;;6.17;100.00
60307;BME280;46155;52.364;6.580;2023-02-13T18:27:00;103318.03;;;6.08;100.00
60307;BME280;46155;52.364;6.580;2023-02-13T18:29:26;103317.66;;;6.05;100.00
60307;BME280;46155;52.364;6.580;2023-02-13T18:31:52;103321.38;;;6.07;100.00
60307;BME280;46155;52.364;6.580;2023-02-13T18:34:19;103312.84;;;6.08;100.00
60307;BME280;46155;52.364;6.580;2023-02-13T18:36:45;103304.78;;;6.07;100.00
60307;BME280;46155;52.364;6.580;2023-02-13T18:39:10;103307.63;;;6.08;99.79
60307;BME280;46155;52.364;6.580;2023-02-13T18:41:35;103307.63;;;6.08;98.59
60307;BME280;46155;52.364;6.580;2023-02-13T18:44:01;103313.56;;;6.07;98.37
60307;BME280;46155;52.364;6.580;2023-02-13T18:46:26;103317.66;;;6.05;98.34
60307;BME280;46155;52.364;6.580;2023-02-13T18:48:51;103303.50;;;6.03;99.40
60307;BME280;46155;52.364;6.580;2023-02-13T18:51:17;103309.09;;;6.06;98.21
60307;BME280;46155;52.364;6.580;2023-02-13T18:53:42;103307.81;;;6.02;99.32
60307;BME280;46155;52.364;6.580;2023-02-13T18:56:09;103308.38;;;6.00;98.68
60307;BME280;46155;52.364;6.580;2023-02-13T18:58:34;103308.38;;;6.00;99.40
60307;BME280;46155;52.364;6.580;2023-02-13T19:01:12;103296.06;;;5.99;98.63
60307;BME280;46155;52.364;6.580;2023-02-13T19:03:39;103301.66;;;6.02;100.00
60307;BME280;46155;52.364;6.580;2023-02-13T19:06:06;103296.78;;;6.05;100.00